weather.gov     
National Weather Service

Terminal Aerodrome Forecast
NWS Homepage
This page is being discontinued on March 12, 2014.
The same data is available at this site. Please update your bookmarks.
Thank you, and we apologize for the inconvenience.
Please send an email to SR-SRH.Webmaster@noaa.gov with any concerns.


Current Version
Previous Version:    01  02  03  04  05  06  07  08  09  10  11  12  13  14  15  16  17  18  19  20  21  22  23  24  25  26  27  
[Printable]
250
FTUS41 KBTV 152300
TAFMPV
TAF
KMPV 152334Z 1600/1624 32012G22KT 5SM -RA BR SCT009 OVC015
      TEMPO 1600/1601 2SM -RASN BR BKN009
     FM160100 32010G18KT 1 1/2SM -SN BR OVC010
     FM160600 32010G18KT 5SM -SHSN OVC015
     FM160800 32012G20KT P6SM BKN025
     FM161300 32015G25KT P6SM SCT025
     FM162100 32010KT P6SM SKC=


U.S. Dept. of Commerce
NOAA National Weather Service
1325 East West Highway
Silver Spring, MD 20910
E-mail: w-nws.webmaster@noaa.gov
Page last modified: May 16, 2007
NATIONAL WEATHER SERVICE: for Safety, for Work, for Fun - FOR LIFE